createdAt,value
2023-05-21T00:05:01.958Z,16.1
2023-05-21T00:10:08.159Z,16.0
2023-05-21T00:15:14.380Z,16.0
2023-05-21T00:20:20.585Z,15.9
2023-05-21T00:25:26.811Z,15.9
2023-05-21T00:30:32.996Z,15.9
2023-05-21T00:35:39.206Z,15.9
2023-05-21T00:40:45.414Z,15.9
2023-05-21T00:45:50.668Z,15.9
2023-05-21T00:50:56.843Z,15.9
2023-05-21T00:56:03.070Z,15.9
2023-05-21T01:01:09.272Z,15.9
2023-05-21T01:06:15.464Z,15.9
2023-05-21T01:11:21.705Z,15.9
2023-05-21T01:16:27.976Z,15.9
2023-05-21T01:21:34.079Z,15.9
2023-05-21T01:26:40.295Z,15.9
2023-05-21T01:31:46.503Z,16.0
2023-05-21T01:36:52.703Z,16.0
2023-05-21T01:41:58.916Z,16.1
2023-05-21T01:47:05.133Z,16.1
2023-05-21T01:52:11.333Z,16.1
2023-05-21T01:57:17.551Z,16.2
2023-05-21T02:02:23.759Z,16.2
2023-05-21T02:07:29.972Z,16.3
2023-05-21T02:12:36.182Z,16.3
2023-05-21T02:17:42.554Z,16.3
2023-05-21T02:22:48.620Z,16.4
2023-05-21T02:27:54.790Z,16.4
2023-05-21T02:33:01.125Z,16.4
2023-05-21T02:38:07.211Z,16.4
2023-05-21T02:43:15.922Z,16.4
2023-05-21T02:48:19.625Z,16.4
2023-05-21T02:53:25.833Z,16.3
2023-05-21T02:58:32.037Z,16.3
2023-05-21T03:03:38.328Z,16.2
2023-05-21T03:08:44.458Z,16.1
2023-05-21T03:13:50.734Z,16.0
2023-05-21T03:18:56.919Z,16.0
2023-05-21T03:24:03.082Z,15.9
2023-05-21T03:29:09.286Z,15.8
2023-05-21T03:34:15.497Z,15.8
2023-05-21T03:39:21.712Z,15.7
2023-05-21T03:44:27.919Z,15.7
2023-05-21T03:49:34.121Z,15.6
2023-05-21T03:54:40.332Z,15.6
2023-05-21T03:59:46.537Z,15.6
2023-05-21T04:04:52.848Z,15.5
2023-05-21T04:09:58.954Z,15.5
2023-05-21T04:15:05.169Z,15.5
2023-05-21T04:20:11.401Z,15.5
2023-05-21T04:25:17.581Z,15.5
2023-05-21T04:30:23.804Z,15.5
2023-05-21T04:35:30.025Z,15.5
2023-05-21T04:40:36.727Z,15.5
2023-05-21T04:45:42.424Z,15.5
2023-05-21T04:50:48.633Z,15.5
2023-05-21T04:55:54.845Z,15.6
2023-05-21T05:01:01.067Z,15.6
2023-05-21T05:06:07.251Z,15.7
2023-05-21T05:11:13.472Z,15.7
2023-05-21T05:16:19.677Z,15.8
2023-05-21T05:21:25.885Z,15.8
2023-05-21T05:26:32.094Z,15.9
2023-05-21T05:31:38.306Z,16.0
2023-05-21T05:36:44.512Z,16.1
2023-05-21T05:41:50.719Z,16.2
2023-05-21T05:46:56.937Z,16.3
2023-05-21T05:52:03.130Z,16.3
2023-05-21T05:57:09.336Z,16.4
2023-05-21T06:02:15.560Z,16.5
2023-05-21T06:07:21.746Z,16.6
2023-05-21T06:12:27.962Z,16.7
2023-05-21T06:17:33.201Z,16.8
2023-05-21T06:22:39.407Z,17.0
2023-05-21T06:27:45.614Z,17.1
2023-05-21T06:32:51.921Z,17.2
2023-05-21T06:37:58.024Z,17.3
2023-05-21T06:43:04.230Z,17.4
2023-05-21T06:48:10.485Z,17.5
2023-05-21T06:53:16.642Z,17.5
2023-05-21T06:58:22.852Z,17.6
2023-05-21T07:03:29.188Z,17.7
2023-05-21T07:08:35.266Z,17.8
2023-05-21T07:13:41.479Z,17.9
2023-05-21T07:18:47.756Z,18.0
2023-05-21T07:23:53.892Z,18.1
2023-05-21T07:29:00.120Z,18.3
2023-05-21T07:34:06.354Z,18.6
2023-05-21T07:39:12.525Z,19.0
2023-05-21T07:44:18.733Z,19.2
2023-05-21T07:49:24.972Z,19.4
2023-05-21T07:54:31.156Z,19.7
2023-05-21T07:59:37.418Z,20.0
2023-05-21T08:04:43.604Z,20.2
2023-05-21T08:09:49.773Z,20.4
2023-05-21T08:14:55.989Z,20.5
2023-05-21T08:20:02.187Z,20.6
2023-05-21T08:25:08.406Z,20.7
2023-05-21T08:30:14.604Z,20.9
2023-05-21T08:35:20.831Z,21.0
2023-05-21T08:40:27.029Z,21.1
2023-05-21T08:45:33.250Z,21.3
2023-05-21T08:50:39.459Z,21.5
2023-05-21T08:55:45.651Z,21.7
2023-05-21T09:00:51.946Z,22.0
2023-05-21T09:05:58.067Z,22.2
2023-05-21T09:11:04.275Z,22.4
2023-05-21T09:16:10.536Z,22.5
2023-05-21T09:21:16.718Z,22.6
2023-05-21T09:26:22.902Z,22.7
2023-05-21T09:31:29.132Z,22.8
2023-05-21T09:36:35.333Z,22.8
2023-05-21T09:41:41.525Z,22.9
2023-05-21T09:46:47.787Z,22.9
2023-05-21T09:51:53.953Z,22.9
2023-05-21T09:57:00.168Z,22.8
2023-05-21T10:02:06.468Z,22.8
2023-05-21T10:07:12.583Z,22.7
2023-05-21T10:12:18.776Z,22.8
2023-05-21T10:17:24.997Z,22.8
2023-05-21T10:22:31.209Z,22.9
2023-05-21T10:27:37.418Z,23.0
2023-05-21T10:32:43.748Z,23.0
2023-05-21T10:37:49.822Z,23.2
2023-05-21T10:42:56.048Z,23.4
2023-05-21T10:48:02.300Z,23.5
2023-05-21T10:53:10.644Z,23.7
2023-05-21T10:58:14.662Z,23.8
2023-05-21T11:03:21.172Z,23.9
2023-05-21T11:08:27.088Z,24.1
2023-05-21T11:13:33.289Z,24.2
2023-05-21T11:18:39.505Z,24.3
2023-05-21T11:23:45.718Z,24.4
2023-05-21T11:28:51.917Z,24.5
2023-05-21T11:33:58.137Z,24.7
2023-05-21T11:39:04.341Z,24.9
2023-05-21T11:44:10.542Z,25.0
2023-05-21T11:49:15.783Z,25.1
2023-05-21T11:54:21.997Z,25.1
2023-05-21T11:59:28.216Z,25.2
2023-05-21T12:04:34.417Z,25.3
2023-05-21T12:09:40.622Z,25.4
2023-05-21T12:14:46.835Z,25.5
2023-05-21T12:19:52.074Z,25.5
2023-05-21T12:24:58.289Z,25.6
2023-05-21T12:30:04.495Z,25.6
2023-05-21T12:35:10.781Z,25.7
2023-05-21T12:40:16.944Z,25.8
2023-05-21T12:45:23.152Z,25.9
2023-05-21T12:50:29.364Z,26.0
2023-05-21T12:55:35.576Z,26.1
2023-05-21T13:00:41.797Z,26.2
2023-05-21T13:05:48.065Z,26.3
2023-05-21T13:10:54.232Z,26.4
2023-05-21T13:16:00.572Z,26.5
2023-05-21T13:21:06.666Z,26.5
2023-05-21T13:26:13.111Z,0.0
2023-05-21T13:31:19.321Z,26.6
2023-05-21T13:36:25.542Z,26.6
2023-05-21T13:41:31.756Z,26.6
2023-05-21T13:46:37.998Z,26.7
2023-05-21T13:51:44.201Z,26.7
2023-05-21T13:56:50.412Z,26.8
2023-05-21T14:01:56.695Z,27.0
2023-05-21T14:07:02.848Z,27.1
2023-05-21T14:12:09.068Z,27.2
2023-05-21T14:17:15.302Z,27.4
2023-05-21T14:22:21.521Z,27.4
2023-05-21T14:27:27.730Z,27.4
2023-05-21T14:32:33.961Z,27.3
2023-05-21T14:37:40.180Z,27.3
2023-05-21T14:42:46.400Z,27.3
2023-05-21T14:47:52.780Z,27.4
2023-05-21T14:52:58.828Z,27.6
2023-05-21T14:58:05.063Z,27.7
2023-05-21T15:03:11.321Z,27.7
2023-05-21T15:08:17.497Z,27.8
2023-05-21T15:13:23.707Z,27.8
2023-05-21T15:18:29.944Z,27.9
2023-05-21T15:23:36.162Z,28.0
2023-05-21T15:28:42.368Z,28.0
2023-05-21T15:33:48.589Z,28.0
2023-05-21T15:38:54.807Z,28.1
2023-05-21T15:44:01.026Z,28.1
2023-05-21T15:49:07.255Z,28.2
2023-05-21T15:54:13.470Z,28.2
2023-05-21T15:59:19.675Z,28.2
2023-05-21T16:04:25.899Z,28.2
2023-05-21T16:09:32.113Z,28.2
2023-05-21T16:14:38.326Z,28.1
2023-05-21T16:19:44.552Z,28.1
2023-05-21T16:24:50.780Z,28.1
2023-05-21T16:29:57.039Z,28.1
2023-05-21T16:35:03.201Z,28.1
2023-05-21T16:40:09.418Z,28.2
2023-05-21T16:45:15.648Z,28.3
2023-05-21T16:50:21.867Z,28.3
2023-05-21T16:55:28.077Z,28.4
2023-05-21T17:00:34.289Z,28.4
2023-05-21T17:05:40.516Z,28.3
2023-05-21T17:10:46.736Z,28.2
2023-05-21T17:15:52.974Z,28.1
2023-05-21T17:20:59.173Z,28.1
2023-05-21T17:26:05.383Z,28.0
2023-05-21T17:31:11.678Z,27.9
2023-05-21T17:36:17.848Z,27.9
2023-05-21T17:41:24.045Z,27.8
2023-05-21T17:46:30.279Z,27.7
2023-05-21T17:51:35.501Z,27.6
2023-05-21T17:56:42.491Z,27.5
2023-05-21T18:01:47.938Z,27.4
2023-05-21T18:06:54.162Z,27.3
2023-05-21T18:12:00.416Z,27.2
2023-05-21T18:17:06.721Z,27.0
2023-05-21T18:22:12.839Z,26.9
2023-05-21T18:27:19.039Z,26.8
2023-05-21T18:32:25.410Z,26.6
2023-05-21T18:37:31.471Z,26.5
2023-05-21T18:42:37.685Z,26.4
2023-05-21T18:47:43.938Z,26.3
2023-05-21T18:52:51.626Z,26.2
2023-05-21T18:57:56.337Z,26.0
2023-05-21T19:03:02.812Z,0.0
2023-05-21T19:08:09.009Z,25.7
2023-05-21T19:13:15.213Z,25.5
2023-05-21T19:18:21.430Z,25.4
2023-05-21T19:23:27.978Z,25.2
2023-05-21T19:28:33.866Z,25.0
2023-05-21T19:33:40.145Z,24.9
2023-05-21T19:38:46.280Z,24.7
2023-05-21T19:43:52.493Z,24.5
2023-05-21T19:48:58.784Z,24.4
2023-05-21T19:54:04.906Z,24.2
2023-05-21T19:59:11.120Z,24.0
2023-05-21T20:04:17.482Z,23.8
2023-05-21T20:09:23.539Z,23.6
2023-05-21T20:14:29.753Z,23.5
2023-05-21T20:19:36.149Z,23.3
2023-05-21T20:24:42.165Z,23.2
2023-05-21T20:29:48.386Z,23.0
2023-05-21T20:35:02.688Z,22.9
2023-05-21T20:40:00.791Z,22.7
2023-05-21T20:45:07.022Z,22.5
2023-05-21T20:55:19.432Z,22.2
2023-05-21T21:00:25.625Z,22.0
2023-05-21T21:05:31.833Z,21.9
2023-05-21T21:10:38.304Z,21.7
2023-05-21T21:15:44.317Z,21.6
2023-05-21T21:20:50.494Z,21.4
2023-05-21T21:25:56.672Z,21.3
2023-05-21T21:36:09.094Z,21.0
2023-05-21T21:41:15.301Z,20.9
2023-05-21T21:46:21.578Z,20.8
2023-05-21T21:51:27.728Z,20.6
2023-05-21T21:56:33.929Z,20.5
2023-05-21T22:01:40.173Z,20.5
2023-05-21T22:06:46.346Z,20.5
2023-05-21T22:11:52.552Z,20.5
2023-05-21T22:16:58.905Z,20.4
2023-05-21T22:22:04.960Z,20.3
2023-05-21T22:27:11.177Z,20.2
2023-05-21T22:32:17.385Z,20.1
2023-05-21T22:37:23.599Z,20.0
2023-05-21T22:42:29.819Z,19.9
2023-05-21T22:47:36.055Z,19.8
2023-05-21T22:52:42.221Z,19.8
2023-05-21T22:57:48.434Z,19.7
2023-05-21T23:02:55.022Z,19.7
2023-05-21T23:08:00.849Z,19.7
2023-05-21T23:13:07.065Z,19.7
2023-05-21T23:18:13.315Z,19.7
2023-05-21T23:23:18.498Z,19.7
2023-05-21T23:28:24.691Z,19.7
2023-05-21T23:33:30.897Z,19.7
2023-05-21T23:38:37.105Z,19.7
2023-05-21T23:43:43.318Z,19.7
2023-05-21T23:48:49.537Z,19.7
2023-05-21T23:53:55.734Z,19.7
2023-05-21T23:59:01.949Z,19.7
